createdAt,value
2023-04-03T00:00:38.145Z,63.80
2023-04-03T00:03:05.458Z,63.30
2023-04-03T00:05:32.388Z,64.10
2023-04-03T00:07:59.413Z,64.20
2023-04-03T00:10:26.540Z,64.00
2023-04-03T00:12:53.587Z,64.20
2023-04-03T00:15:21.709Z,64.10
2023-04-03T00:17:48.995Z,64.20
2023-04-03T00:20:16.402Z,64.50
2023-04-03T00:22:43.328Z,64.40
2023-04-03T00:25:10.555Z,64.40
2023-04-03T00:27:38.982Z,65.10
2023-04-03T00:30:07.860Z,64.10
2023-04-03T00:32:35.115Z,64.30
2023-04-03T00:35:02.911Z,64.40
2023-04-03T00:37:30.051Z,64.30
2023-04-03T00:39:57.745Z,64.10
2023-04-03T00:42:25.015Z,64.50
2023-04-03T00:44:58.111Z,64.10
2023-04-03T00:47:26.384Z,64.60
2023-04-03T00:49:54.418Z,63.80
2023-04-03T00:52:29.018Z,64.20
2023-04-03T00:55:01.448Z,64.00
2023-04-03T00:57:29.058Z,64.50
2023-04-03T01:00:02.332Z,64.60
2023-04-03T01:02:29.406Z,64.40
2023-04-03T01:04:56.352Z,64.70
2023-04-03T01:07:28.197Z,64.50
2023-04-03T01:09:59.531Z,64.70
2023-04-03T01:12:30.406Z,63.90
2023-04-03T01:15:00.647Z,64.30
2023-04-03T01:17:35.765Z,64.40
2023-04-03T01:20:24.517Z,64.20
2023-04-03T01:23:09.870Z,64.00
2023-04-03T01:25:40.618Z,64.20
2023-04-03T01:28:10.157Z,64.60
2023-04-03T01:30:54.078Z,64.60
2023-04-03T01:33:21.624Z,64.30
2023-04-03T01:35:48.789Z,63.80
2023-04-03T01:38:16.086Z,64.50
2023-04-03T01:40:43.329Z,64.30
2023-04-03T01:43:11.027Z,64.50
2023-04-03T01:45:38.063Z,64.40
2023-04-03T01:48:05.611Z,64.20
2023-04-03T01:50:32.517Z,64.10
2023-04-03T01:52:59.599Z,64.50
2023-04-03T01:55:26.958Z,64.10
2023-04-03T01:57:54.003Z,64.00
2023-04-03T02:00:21.147Z,64.00
2023-04-03T02:02:48.081Z,64.60
2023-04-03T02:05:15.545Z,64.60
2023-04-03T02:07:42.458Z,64.40
2023-04-03T02:10:11.590Z,64.50
2023-04-03T02:12:38.560Z,64.40
2023-04-03T02:15:06.216Z,63.90
2023-04-03T02:17:33.221Z,65.00
2023-04-03T02:20:00.333Z,63.90
2023-04-03T02:22:27.311Z,63.90
2023-04-03T02:24:54.304Z,64.30
2023-04-03T02:27:21.438Z,64.30
2023-04-03T02:29:49.298Z,63.80
2023-04-03T02:32:16.315Z,63.80
2023-04-03T02:34:44.161Z,64.30
2023-04-03T02:37:13.420Z,63.90
2023-04-03T02:39:41.156Z,63.70
2023-04-03T02:42:08.526Z,63.90
2023-04-03T02:44:36.681Z,64.20
2023-04-03T02:47:03.930Z,63.80
2023-04-03T02:49:31.040Z,63.80
2023-04-03T02:51:58.179Z,64.10
2023-04-03T02:54:28.782Z,64.10
2023-04-03T02:56:58.983Z,64.20
2023-04-03T02:59:26.064Z,64.10
2023-04-03T03:01:53.728Z,64.00
2023-04-03T03:04:20.821Z,64.10
2023-04-03T03:06:48.138Z,64.20
2023-04-03T03:09:15.692Z,64.40
2023-04-03T03:11:43.493Z,64.50
2023-04-03T03:14:11.109Z,64.40
2023-04-03T03:16:38.069Z,64.30
2023-04-03T03:19:05.011Z,64.50
2023-04-03T03:21:32.141Z,64.50
2023-04-03T03:23:59.098Z,64.60
2023-04-03T03:26:28.232Z,64.80
2023-04-03T03:28:55.801Z,64.60
2023-04-03T03:31:22.945Z,64.90
2023-04-03T03:33:50.055Z,64.70
2023-04-03T03:36:17.185Z,65.10
2023-04-03T03:38:44.455Z,65.00
2023-04-03T03:41:11.732Z,64.90
2023-04-03T03:43:39.654Z,65.10
2023-04-03T03:46:08.212Z,65.10
2023-04-03T03:48:35.371Z,65.00
2023-04-03T03:51:02.448Z,64.90
2023-04-03T03:53:33.547Z,65.10
2023-04-03T03:56:05.874Z,65.00
2023-04-03T03:58:35.997Z,65.40
2023-04-03T04:01:04.670Z,65.20
2023-04-03T04:03:32.151Z,65.30
2023-04-03T04:05:59.275Z,65.30
2023-04-03T04:08:26.391Z,65.60
2023-04-03T04:10:53.920Z,65.10
2023-04-03T04:13:20.918Z,65.10
2023-04-03T04:15:47.966Z,65.50
2023-04-03T04:18:16.894Z,65.40
2023-04-03T04:20:47.230Z,65.70
2023-04-03T04:23:16.357Z,65.30
2023-04-03T04:25:46.445Z,65.90
2023-04-03T04:28:14.143Z,65.70
2023-04-03T04:30:41.853Z,65.30
2023-04-03T04:33:09.625Z,64.60
2023-04-03T04:35:37.360Z,64.60
2023-04-03T04:38:04.989Z,64.80
2023-04-03T04:40:32.071Z,64.40
2023-04-03T04:43:00.374Z,64.20
2023-04-03T04:45:27.583Z,64.00
2023-04-03T04:47:57.239Z,64.00
2023-04-03T04:50:27.946Z,64.10
2023-04-03T04:52:56.175Z,64.40
2023-04-03T04:55:23.279Z,64.50
2023-04-03T04:57:51.192Z,63.50
2023-04-03T05:00:18.721Z,64.00
2023-04-03T05:02:45.936Z,63.20
2023-04-03T05:05:13.693Z,63.50
2023-04-03T05:07:41.460Z,63.70
2023-04-03T05:10:09.526Z,63.70
2023-04-03T05:12:37.193Z,63.00
2023-04-03T05:15:06.333Z,63.90
2023-04-03T05:17:34.093Z,63.50
2023-04-03T05:20:01.639Z,63.50
2023-04-03T05:22:29.491Z,62.70
2023-04-03T05:25:01.914Z,62.90
2023-04-03T05:27:29.343Z,65.20
2023-04-03T05:29:58.830Z,64.70
2023-04-03T05:32:28.664Z,64.60
2023-04-03T05:35:22.053Z,63.80
2023-04-03T05:37:52.371Z,64.30
2023-04-03T05:40:19.728Z,63.80
2023-04-03T05:42:49.753Z,63.50
2023-04-03T05:45:19.222Z,63.70
2023-04-03T05:47:46.840Z,63.10
2023-04-03T05:50:13.929Z,63.80
2023-04-03T05:52:44.926Z,63.20
2023-04-03T05:55:12.324Z,61.90
2023-04-03T05:57:40.203Z,63.70
2023-04-03T06:00:10.504Z,63.10
2023-04-03T06:02:47.769Z,63.10
2023-04-03T06:05:19.845Z,63.20
2023-04-03T06:07:47.126Z,62.30
2023-04-03T06:10:14.266Z,62.20
2023-04-03T06:12:41.345Z,63.50
2023-04-03T06:15:11.076Z,62.60
2023-04-03T06:17:38.824Z,62.10
2023-04-03T06:20:06.611Z,63.20
2023-04-03T06:22:34.415Z,63.00
2023-04-03T06:25:02.523Z,63.40
2023-04-03T06:27:29.735Z,62.70
2023-04-03T06:29:56.678Z,62.80
2023-04-03T06:32:23.631Z,63.00
2023-04-03T06:34:50.564Z,63.60
2023-04-03T06:37:23.723Z,63.60
2023-04-03T06:39:51.316Z,61.30
2023-04-03T06:42:18.292Z,63.40
2023-04-03T06:45:08.892Z,62.70
2023-04-03T06:47:35.893Z,63.00
2023-04-03T06:50:03.233Z,62.40
2023-04-03T06:52:30.202Z,62.20
2023-04-03T06:55:00.381Z,62.60
2023-04-03T06:57:27.576Z,62.20
2023-04-03T06:59:54.535Z,61.70
2023-04-03T07:02:22.038Z,61.90
2023-04-03T07:04:49.170Z,62.10
2023-04-03T07:07:16.696Z,60.90
2023-04-03T07:09:45.236Z,61.30
2023-04-03T07:12:12.328Z,61.20
2023-04-03T07:14:39.363Z,61.20
2023-04-03T07:17:06.516Z,60.90
2023-04-03T07:19:33.511Z,60.40
2023-04-03T07:22:00.826Z,60.60
2023-04-03T07:24:27.858Z,61.30
2023-04-03T07:26:55.129Z,60.50
2023-04-03T07:29:22.593Z,60.90
2023-04-03T07:31:50.385Z,60.50
2023-04-03T07:34:17.425Z,61.00
2023-04-03T07:36:44.399Z,60.00
2023-04-03T07:39:12.167Z,60.20
2023-04-03T07:41:39.488Z,59.40
2023-04-03T07:44:06.729Z,60.00
2023-04-03T07:46:33.745Z,59.60
2023-04-03T07:49:00.778Z,59.20
2023-04-03T07:51:29.215Z,60.00
2023-04-03T07:53:56.509Z,60.50
2023-04-03T07:56:23.892Z,61.10
2023-04-03T07:58:51.239Z,59.40
2023-04-03T08:01:18.141Z,59.40
2023-04-03T08:03:45.304Z,59.90
2023-04-03T08:06:16.201Z,59.30
2023-04-03T08:08:44.329Z,59.30
2023-04-03T08:11:11.812Z,58.50
2023-04-03T08:13:39.740Z,59.40
2023-04-03T08:16:17.634Z,58.50
2023-04-03T08:18:45.393Z,56.50
2023-04-03T08:21:13.448Z,55.70
2023-04-03T08:23:42.612Z,57.90
2023-04-03T08:26:12.625Z,57.00
2023-04-03T08:28:40.671Z,57.70
2023-04-03T08:31:12.033Z,57.50
2023-04-03T08:33:40.516Z,56.70
2023-04-03T08:36:16.684Z,56.00
2023-04-03T08:38:43.674Z,55.00
2023-04-03T08:41:19.380Z,57.80
2023-04-03T08:43:54.643Z,54.80
2023-04-03T08:46:27.060Z,54.90
2023-04-03T08:48:55.739Z,55.50
2023-04-03T08:51:24.617Z,53.00
2023-04-03T08:54:00.028Z,55.10
2023-04-03T08:56:27.860Z,55.50
2023-04-03T08:59:01.752Z,53.00
2023-04-03T09:01:41.021Z,51.00
2023-04-03T09:04:14.989Z,53.50
2023-04-03T09:06:47.293Z,53.30
2023-04-03T09:09:16.454Z,54.60
2023-04-03T09:12:01.819Z,52.90
2023-04-03T09:14:44.103Z,51.30
2023-04-03T09:17:15.887Z,52.40
2023-04-03T09:19:52.219Z,52.80
2023-04-03T09:22:27.898Z,52.00
2023-04-03T09:25:09.765Z,50.60
2023-04-03T09:27:36.827Z,53.60
2023-04-03T09:30:04.831Z,52.80
2023-04-03T09:32:34.617Z,51.30
2023-04-03T09:35:27.344Z,51.70
2023-04-03T09:38:22.440Z,49.50
2023-04-03T09:41:03.728Z,51.60
2023-04-03T09:43:32.985Z,50.00
2023-04-03T09:46:32.319Z,51.40
2023-04-03T09:49:08.728Z,50.00
2023-04-03T09:51:37.480Z,50.00
2023-04-03T09:54:31.227Z,51.10
2023-04-03T09:57:07.310Z,53.20
2023-04-03T09:59:34.896Z,49.30
2023-04-03T10:02:19.786Z,48.70
2023-04-03T10:04:48.907Z,51.40
2023-04-03T10:07:31.772Z,49.40
2023-04-03T10:10:02.521Z,49.60
2023-04-03T10:12:29.769Z,51.60
2023-04-03T10:14:59.439Z,52.30
2023-04-03T10:17:48.890Z,48.70
2023-04-03T10:20:34.563Z,49.30
2023-04-03T10:23:34.184Z,50.10
2023-04-03T10:26:07.140Z,50.00
2023-04-03T10:28:46.263Z,47.70
2023-04-03T10:31:24.902Z,49.60
2023-04-03T10:34:03.301Z,48.10
2023-04-03T10:36:42.158Z,52.10
2023-04-03T10:39:20.729Z,48.60
2023-04-03T10:42:25.137Z,49.30
2023-04-03T10:45:19.845Z,47.10
2023-04-03T10:48:19.926Z,51.90
2023-04-03T10:50:57.145Z,45.10
2023-04-03T10:53:35.385Z,50.00
2023-04-03T10:56:08.058Z,48.30
2023-04-03T10:58:40.891Z,48.30
2023-04-03T11:01:13.178Z,50.60
2023-04-03T11:03:48.480Z,47.40
2023-04-03T11:06:18.208Z,47.40
2023-04-03T11:08:58.759Z,49.90
2023-04-03T11:11:28.940Z,48.40
2023-04-03T11:14:23.889Z,48.50
2023-04-03T11:17:12.313Z,45.10
2023-04-03T11:20:02.604Z,49.00
2023-04-03T11:22:32.767Z,46.40
2023-04-03T11:25:11.771Z,48.90
2023-04-03T11:27:48.208Z,45.00
2023-04-03T11:30:21.946Z,45.50
2023-04-03T11:33:19.321Z,47.00
2023-04-03T11:35:49.395Z,45.90
2023-04-03T11:38:24.404Z,48.30
2023-04-03T11:40:52.220Z,47.50
2023-04-03T11:43:31.528Z,43.30
2023-04-03T11:46:07.270Z,42.80
2023-04-03T11:48:37.181Z,42.50
2023-04-03T11:51:21.659Z,47.00
2023-04-03T11:53:49.560Z,48.70
2023-04-03T11:56:25.890Z,50.90
2023-04-03T11:59:11.623Z,46.50
2023-04-03T12:01:55.906Z,47.70
2023-04-03T12:04:26.403Z,46.20
2023-04-03T12:07:20.064Z,47.90
2023-04-03T12:09:47.779Z,44.20
2023-04-03T12:12:40.485Z,46.80
2023-04-03T12:15:19.355Z,46.20
2023-04-03T12:17:46.484Z,47.10
2023-04-03T12:20:51.837Z,48.10
2023-04-03T12:23:58.261Z,50.40
2023-04-03T12:26:52.214Z,44.40
2023-04-03T12:29:34.457Z,43.60
2023-04-03T12:32:32.377Z,44.60
2023-04-03T12:35:14.338Z,44.90
2023-04-03T12:37:44.812Z,43.60
2023-04-03T12:40:22.090Z,45.10
2023-04-03T12:43:05.402Z,47.80
2023-04-03T12:45:41.723Z,42.70
2023-04-03T12:48:17.430Z,47.40
2023-04-03T12:50:48.129Z,43.30
2023-04-03T12:53:23.867Z,46.60
2023-04-03T12:55:58.277Z,45.90
2023-04-03T12:58:28.095Z,45.50
2023-04-03T13:01:04.099Z,41.90
2023-04-03T13:03:32.014Z,43.70
2023-04-03T13:06:02.895Z,39.90
2023-04-03T13:08:29.904Z,43.20
2023-04-03T13:11:11.821Z,43.10
2023-04-03T13:13:40.420Z,43.30
2023-04-03T13:16:12.681Z,46.30
2023-04-03T13:18:39.773Z,45.00
2023-04-03T13:21:18.019Z,37.60
2023-04-03T13:23:51.501Z,45.10
2023-04-03T13:26:22.575Z,45.40
2023-04-03T13:28:52.452Z,43.00
2023-04-03T13:31:27.316Z,41.70
2023-04-03T13:34:06.810Z,40.10
2023-04-03T13:36:44.019Z,45.60
2023-04-03T13:39:16.789Z,46.80
2023-04-03T13:41:46.323Z,40.20
2023-04-03T13:44:22.422Z,40.70
2023-04-03T13:46:57.156Z,40.50
2023-04-03T13:49:37.463Z,43.30
2023-04-03T13:52:28.623Z,42.30
2023-04-03T13:55:26.007Z,39.80
2023-04-03T13:57:55.791Z,41.40
2023-04-03T14:00:34.991Z,41.40
2023-04-03T14:03:02.307Z,43.10
2023-04-03T14:05:29.298Z,40.60
2023-04-03T14:07:56.424Z,44.20
2023-04-03T14:10:23.793Z,45.30
2023-04-03T14:12:52.110Z,36.90
2023-04-03T14:15:27.540Z,37.40
2023-04-03T14:17:56.496Z,38.70
2023-04-03T14:20:27.610Z,37.10
2023-04-03T14:22:55.131Z,36.70
2023-04-03T14:25:24.800Z,36.80
2023-04-03T14:27:53.120Z,38.40
2023-04-03T14:30:30.811Z,37.80
2023-04-03T14:32:58.675Z,40.30
2023-04-03T14:35:26.657Z,38.60
2023-04-03T14:37:55.038Z,41.70
2023-04-03T14:40:26.786Z,40.80
2023-04-03T14:42:56.253Z,41.70
2023-04-03T14:45:24.814Z,39.20
2023-04-03T14:47:54.471Z,39.40
2023-04-03T14:50:26.857Z,38.60
2023-04-03T14:52:56.933Z,38.00
2023-04-03T14:55:25.511Z,37.20
2023-04-03T14:57:53.160Z,38.00
2023-04-03T15:00:22.020Z,38.50
2023-04-03T15:02:49.801Z,38.50
2023-04-03T15:05:17.732Z,34.20
2023-04-03T15:07:53.495Z,34.10
2023-04-03T15:10:28.620Z,34.80
2023-04-03T15:12:56.705Z,35.10
2023-04-03T15:15:25.149Z,35.50
2023-04-03T15:17:55.311Z,35.30
2023-04-03T15:20:25.870Z,40.40
2023-04-03T15:22:53.316Z,41.70
2023-04-03T15:25:20.338Z,39.20
2023-04-03T15:27:47.289Z,39.80
2023-04-03T15:30:19.483Z,41.90
2023-04-03T15:32:46.913Z,39.70
2023-04-03T15:35:14.178Z,40.30
2023-04-03T15:37:41.969Z,39.90
2023-04-03T15:40:10.538Z,42.30
2023-04-03T15:42:38.372Z,37.40
2023-04-03T15:45:05.843Z,39.40
2023-04-03T15:47:32.896Z,42.30
2023-04-03T15:50:02.417Z,41.80
2023-04-03T15:52:29.390Z,38.00
2023-04-03T15:54:56.432Z,36.80
2023-04-03T15:57:27.127Z,42.00
2023-04-03T15:59:55.150Z,39.40
2023-04-03T16:02:22.422Z,40.70
2023-04-03T16:04:50.401Z,41.30
2023-04-03T16:07:17.443Z,42.20
2023-04-03T16:09:44.410Z,40.50
2023-04-03T16:12:11.393Z,45.90
2023-04-03T16:14:38.339Z,43.90
2023-04-03T16:17:05.287Z,39.30
2023-04-03T16:19:32.351Z,39.80
2023-04-03T16:21:59.396Z,44.30
2023-04-03T16:24:26.523Z,42.10
2023-04-03T16:26:54.504Z,42.40
2023-04-03T16:29:21.520Z,43.60
2023-04-03T16:31:49.033Z,40.60
2023-04-03T16:34:16.960Z,41.00
2023-04-03T16:36:44.110Z,39.60
2023-04-03T16:39:11.148Z,43.20
2023-04-03T16:41:38.894Z,44.40
2023-04-03T16:44:08.123Z,45.30
2023-04-03T16:46:35.445Z,42.20
2023-04-03T16:49:02.598Z,40.90
2023-04-03T16:51:29.967Z,44.60
2023-04-03T16:53:57.108Z,44.40
2023-04-03T16:56:24.388Z,44.30
2023-04-03T16:58:51.378Z,43.40
2023-04-03T17:01:20.091Z,42.80
2023-04-03T17:03:47.463Z,42.00
2023-04-03T17:06:19.216Z,44.70
2023-04-03T17:08:50.660Z,45.30
2023-04-03T17:11:28.641Z,41.60
2023-04-03T17:13:55.830Z,39.90
2023-04-03T17:16:23.569Z,41.10
2023-04-03T17:18:50.777Z,45.60
2023-04-03T17:21:18.338Z,41.00
2023-04-03T17:23:49.875Z,41.70
2023-04-03T17:26:17.096Z,44.90
2023-04-03T17:28:45.552Z,43.80
2023-04-03T17:31:13.673Z,44.60
2023-04-03T17:33:40.652Z,41.60
2023-04-03T17:36:08.121Z,42.70
2023-04-03T17:38:35.671Z,44.00
2023-04-03T17:41:06.881Z,43.90
2023-04-03T17:43:34.653Z,43.20
2023-04-03T17:46:10.503Z,46.00
2023-04-03T17:48:39.986Z,42.00
2023-04-03T17:51:12.071Z,43.70
2023-04-03T17:53:39.893Z,43.50
2023-04-03T17:56:12.531Z,42.80
2023-04-03T17:58:41.029Z,41.40
2023-04-03T18:01:17.022Z,41.70
2023-04-03T18:03:45.239Z,39.00
2023-04-03T18:06:18.493Z,41.00
2023-04-03T18:08:52.603Z,43.20
2023-04-03T18:11:22.191Z,44.10
2023-04-03T18:13:49.428Z,44.00
2023-04-03T18:16:16.597Z,43.50
2023-04-03T18:18:43.756Z,44.50
2023-04-03T18:21:13.517Z,40.00
2023-04-03T18:23:45.044Z,40.30
2023-04-03T18:26:16.478Z,40.40
2023-04-03T18:28:50.991Z,41.20
2023-04-03T18:31:18.805Z,43.20
2023-04-03T18:33:46.141Z,45.30
2023-04-03T18:36:13.384Z,39.40
2023-04-03T18:38:40.359Z,40.10
2023-04-03T18:41:09.664Z,40.60
2023-04-03T18:43:36.645Z,41.80
2023-04-03T18:46:05.521Z,41.50
2023-04-03T18:48:36.138Z,43.10
2023-04-03T18:51:03.382Z,43.30
2023-04-03T18:53:30.302Z,43.60
2023-04-03T18:55:57.458Z,44.80
2023-04-03T18:58:24.549Z,43.90
2023-04-03T19:00:51.515Z,44.70
2023-04-03T19:03:18.749Z,44.40
2023-04-03T19:05:46.388Z,43.50
2023-04-03T19:08:14.015Z,44.50
2023-04-03T19:10:40.924Z,45.50
2023-04-03T19:13:07.924Z,43.70
2023-04-03T19:15:34.911Z,45.10
2023-04-03T19:18:01.976Z,45.50
2023-04-03T19:20:29.047Z,43.00
2023-04-03T19:22:56.166Z,46.00
2023-04-03T19:25:23.412Z,44.40
2023-04-03T19:27:50.960Z,43.60
2023-04-03T19:30:17.947Z,43.30
2023-04-03T19:32:44.958Z,43.10
2023-04-03T19:35:12.205Z,44.80
2023-04-03T19:37:39.532Z,44.30
2023-04-03T19:40:07.571Z,45.60
2023-04-03T19:42:36.840Z,45.30
2023-04-03T19:45:04.204Z,45.50
2023-04-03T19:47:31.383Z,46.20
2023-04-03T19:49:58.362Z,46.10
2023-04-03T19:52:28.327Z,45.70
2023-04-03T19:54:55.806Z,45.70
2023-04-03T19:57:22.954Z,46.00
2023-04-03T19:59:49.916Z,45.70
2023-04-03T20:02:18.811Z,45.30
2023-04-03T20:04:46.012Z,46.90
2023-04-03T20:07:13.602Z,45.40
2023-04-03T20:09:41.694Z,45.80
2023-04-03T20:12:10.675Z,45.90
2023-04-03T20:14:39.465Z,47.20
2023-04-03T20:17:06.483Z,46.80
2023-04-03T20:19:33.605Z,47.00
2023-04-03T20:22:01.864Z,46.60
2023-04-03T20:24:29.464Z,47.90
2023-04-03T20:26:58.628Z,46.90
2023-04-03T20:29:26.199Z,47.60
2023-04-03T20:31:54.030Z,47.50
2023-04-03T20:34:21.731Z,48.30
2023-04-03T20:36:50.159Z,48.50
2023-04-03T20:39:19.194Z,47.90
2023-04-03T20:41:46.313Z,48.10
2023-04-03T20:44:13.363Z,47.70
2023-04-03T20:46:52.090Z,47.30
2023-04-03T20:49:20.984Z,48.30
2023-04-03T20:51:48.526Z,48.90
2023-04-03T20:54:16.560Z,48.00
2023-04-03T20:56:44.534Z,47.30
2023-04-03T20:59:14.321Z,48.50
2023-04-03T21:01:42.349Z,49.00
2023-04-03T21:04:19.253Z,49.40
2023-04-03T21:07:23.702Z,48.90
2023-04-03T21:10:29.154Z,49.40
2023-04-03T21:13:33.923Z,47.50
2023-04-03T21:16:00.859Z,49.50
2023-04-03T21:18:52.562Z,49.00
2023-04-03T21:21:26.314Z,48.20
2023-04-03T21:23:54.760Z,48.40
2023-04-03T21:26:22.851Z,48.90
2023-04-03T21:28:53.500Z,47.50
2023-04-03T21:31:22.203Z,47.40
2023-04-03T21:33:50.121Z,48.20
2023-04-03T21:36:17.161Z,48.10
2023-04-03T21:38:46.027Z,48.70
2023-04-03T21:41:13.041Z,48.40
2023-04-03T21:43:40.014Z,49.10
2023-04-03T21:46:07.021Z,49.10
2023-04-03T21:48:36.186Z,47.90
2023-04-03T21:51:06.776Z,49.90
2023-04-03T21:53:34.445Z,49.10
2023-04-03T21:56:02.708Z,49.70
2023-04-03T21:58:32.000Z,50.00
2023-04-03T22:01:17.528Z,50.30
2023-04-03T22:03:45.945Z,50.10
2023-04-03T22:06:15.352Z,48.90
2023-04-03T22:08:43.647Z,50.10
2023-04-03T22:11:15.678Z,50.70
2023-04-03T22:13:43.854Z,49.70
2023-04-03T22:16:12.383Z,51.40
2023-04-03T22:18:39.579Z,51.40
2023-04-03T22:21:08.649Z,51.10
2023-04-03T22:23:36.208Z,49.70
2023-04-03T22:26:08.798Z,51.20
2023-04-03T22:28:38.685Z,50.60
2023-04-03T22:31:13.478Z,51.20
2023-04-03T22:33:42.235Z,51.30
2023-04-03T22:36:10.783Z,50.30
2023-04-03T22:38:38.964Z,51.10
2023-04-03T22:41:07.431Z,50.00
2023-04-03T22:43:36.498Z,51.10
2023-04-03T22:46:08.817Z,51.70
2023-04-03T22:48:37.182Z,51.50
2023-04-03T22:51:07.653Z,51.30
2023-04-03T22:53:35.441Z,51.60
2023-04-03T22:56:04.800Z,52.20
2023-04-03T22:58:32.196Z,52.10
2023-04-03T23:01:10.536Z,51.80
2023-04-03T23:03:39.213Z,51.00
2023-04-03T23:06:07.760Z,51.40
2023-04-03T23:08:38.115Z,50.80
2023-04-03T23:11:07.233Z,52.10
2023-04-03T23:13:34.494Z,51.50
2023-04-03T23:16:02.807Z,52.30
2023-04-03T23:18:31.356Z,52.00
2023-04-03T23:21:03.338Z,51.70
2023-04-03T23:23:30.852Z,52.30
2023-04-03T23:26:00.434Z,52.20
2023-04-03T23:28:28.431Z,50.60
2023-04-03T23:31:00.300Z,51.70
2023-04-03T23:33:27.998Z,52.50
2023-04-03T23:35:54.969Z,52.80
2023-04-03T23:38:22.077Z,52.40
2023-04-03T23:40:49.030Z,52.90
2023-04-03T23:43:16.251Z,51.10
2023-04-03T23:45:44.885Z,52.10
2023-04-03T23:48:12.032Z,53.30
2023-04-03T23:50:39.168Z,53.00
2023-04-03T23:53:06.617Z,52.90
2023-04-03T23:55:33.582Z,53.30
2023-04-03T23:58:00.615Z,53.10
